sensor_id;sensor_type;location;lat;lon;timestamp;temperature;humidity
33023;DHT22;19390;51.460;5.710;2024-03-08T00:02:14;3.10;99.90
33023;DHT22;19390;51.460;5.710;2024-03-08T00:04:39;3.10;99.90
33023;DHT22;19390;51.460;5.710;2024-03-08T00:07:05;3.10;99.90
33023;DHT22;19390;51.460;5.710;2024-03-08T00:09:32;3.10;99.90
33023;DHT22;19390;51.460;5.710;2024-03-08T00:11:57;3.10;99.90
33023;DHT22;19390;51.460;5.710;2024-03-08T00:14:23;3.10;99.90
33023;DHT22;19390;51.460;5.710;2024-03-08T00:16:49;3.00;99.90
33023;DHT22;19390;51.460;5.710;2024-03-08T00:19:14;3.00;99.90
33023;DHT22;19390;51.460;5.710;2024-03-08T00:21:40;3.00;99.90
33023;DHT22;19390;51.460;5.710;2024-03-08T00:24:07;3.00;99.90
33023;DHT22;19390;51.460;5.710;2024-03-08T00:26:32;3.00;99.90
33023;DHT22;19390;51.460;5.710;2024-03-08T00:28:58;3.00;99.90
33023;DHT22;19390;51.460;5.710;2024-03-08T00:31:24;3.00;99.90
33023;DHT22;19390;51.460;5.710;2024-03-08T00:33:50;2.90;99.90
33023;DHT22;19390;51.460;5.710;2024-03-08T00:36:16;2.90;99.90
33023;DHT22;19390;51.460;5.710;2024-03-08T00:38:42;2.90;99.90
33023;DHT22;19390;51.460;5.710;2024-03-08T00:41:08;2.90;99.90
33023;DHT22;19390;51.460;5.710;2024-03-08T00:43:33;2.90;99.90
33023;DHT22;19390;51.460;5.710;2024-03-08T00:45:59;2.90;99.90
33023;DHT22;19390;51.460;5.710;2024-03-08T00:48:26;2.80;99.90
33023;DHT22;19390;51.460;5.710;2024-03-08T00:50:52;2.80;99.90
33023;DHT22;19390;51.460;5.710;2024-03-08T00:53:18;2.80;99.90
33023;DHT22;19390;51.460;5.710;2024-03-08T00:55:43;2.80;99.90
33023;DHT22;19390;51.460;5.710;2024-03-08T00:58:12;2.80;99.90
33023;DHT22;19390;51.460;5.710;2024-03-08T01:00:37;2.80;99.90
33023;DHT22;19390;51.460;5.710;2024-03-08T01:03:04;2.70;99.90
33023;DHT22;19390;51.460;5.710;2024-03-08T01:05:30;2.70;99.90
33023;DHT22;19390;51.460;5.710;2024-03-08T01:07:56;2.70;99.90
33023;DHT22;19390;51.460;5.710;2024-03-08T01:10:21;2.70;99.90
33023;DHT22;19390;51.460;5.710;2024-03-08T01:12:48;2.70;99.90
33023;DHT22;19390;51.460;5.710;2024-03-08T01:15:15;2.60;99.90
33023;DHT22;19390;51.460;5.710;2024-03-08T01:17:41;2.60;99.90
33023;DHT22;19390;51.460;5.710;2024-03-08T01:20:07;2.60;99.90
33023;DHT22;19390;51.460;5.710;2024-03-08T01:22:33;2.50;99.90
33023;DHT22;19390;51.460;5.710;2024-03-08T01:24:59;2.50;99.90
33023;DHT22;19390;51.460;5.710;2024-03-08T01:27:24;2.50;99.90
33023;DHT22;19390;51.460;5.710;2024-03-08T01:29:50;2.40;99.90
33023;DHT22;19390;51.460;5.710;2024-03-08T01:32:16;2.40;99.90
33023;DHT22;19390;51.460;5.710;2024-03-08T01:34:41;2.40;99.90
33023;DHT22;19390;51.460;5.710;2024-03-08T01:37:07;2.40;99.90
33023;DHT22;19390;51.460;5.710;2024-03-08T01:39:33;2.40;99.90
33023;DHT22;19390;51.460;5.710;2024-03-08T01:41:59;2.30;99.90
33023;DHT22;19390;51.460;5.710;2024-03-08T01:44:26;2.30;99.90
33023;DHT22;19390;51.460;5.710;2024-03-08T01:46:52;2.30;99.90
33023;DHT22;19390;51.460;5.710;2024-03-08T01:49:20;2.30;99.90
33023;DHT22;19390;51.460;5.710;2024-03-08T01:51:47;2.30;99.90
33023;DHT22;19390;51.460;5.710;2024-03-08T01:54:16;2.30;99.90
33023;DHT22;19390;51.460;5.710;2024-03-08T01:56:42;2.20;99.90
33023;DHT22;19390;51.460;5.710;2024-03-08T01:59:08;2.30;99.90
33023;DHT22;19390;51.460;5.710;2024-03-08T02:01:35;2.20;99.90
33023;DHT22;19390;51.460;5.710;2024-03-08T02:04:00;2.20;99.90
33023;DHT22;19390;51.460;5.710;2024-03-08T02:06:26;2.20;99.90
33023;DHT22;19390;51.460;5.710;2024-03-08T02:08:52;2.10;99.90
33023;DHT22;19390;51.460;5.710;2024-03-08T02:11:18;2.10;99.90
33023;DHT22;19390;51.460;5.710;2024-03-08T02:13:46;2.10;99.90
33023;DHT22;19390;51.460;5.710;2024-03-08T02:16:11;2.10;99.90
33023;DHT22;19390;51.460;5.710;2024-03-08T02:18:37;2.10;99.90
33023;DHT22;19390;51.460;5.710;2024-03-08T02:21:06;2.10;99.90
33023;DHT22;19390;51.460;5.710;2024-03-08T02:23:32;2.00;99.90
33023;DHT22;19390;51.460;5.710;2024-03-08T02:25:58;2.00;99.90
33023;DHT22;19390;51.460;5.710;2024-03-08T02:28:24;2.00;99.90
33023;DHT22;19390;51.460;5.710;2024-03-08T02:30:51;2.00;99.90
33023;DHT22;19390;51.460;5.710;2024-03-08T02:33:17;2.00;99.90
33023;DHT22;19390;51.460;5.710;2024-03-08T02:35:47;2.00;99.90
33023;DHT22;19390;51.460;5.710;2024-03-08T02:38:13;1.90;99.90
33023;DHT22;19390;51.460;5.710;2024-03-08T02:40:43;1.90;99.90
33023;DHT22;19390;51.460;5.710;2024-03-08T02:43:09;1.90;99.90
33023;DHT22;19390;51.460;5.710;2024-03-08T02:45:35;1.80;99.90
33023;DHT22;19390;51.460;5.710;2024-03-08T02:48:01;1.90;99.90
33023;DHT22;19390;51.460;5.710;2024-03-08T02:50:27;1.80;99.90
33023;DHT22;19390;51.460;5.710;2024-03-08T02:52:52;1.80;99.90
33023;DHT22;19390;51.460;5.710;2024-03-08T02:55:18;1.80;99.90
33023;DHT22;19390;51.460;5.710;2024-03-08T02:57:45;1.80;99.90
33023;DHT22;19390;51.460;5.710;2024-03-08T03:00:13;1.80;99.90
33023;DHT22;19390;51.460;5.710;2024-03-08T03:02:38;1.80;99.90
33023;DHT22;19390;51.460;5.710;2024-03-08T03:05:05;1.70;99.90
33023;DHT22;19390;51.460;5.710;2024-03-08T03:07:32;1.70;99.90
33023;DHT22;19390;51.460;5.710;2024-03-08T03:09:59;1.70;99.90
33023;DHT22;19390;51.460;5.710;2024-03-08T03:12:29;1.60;99.90
33023;DHT22;19390;51.460;5.710;2024-03-08T03:14:54;1.60;99.90
33023;DHT22;19390;51.460;5.710;2024-03-08T03:17:22;1.60;99.90
33023;DHT22;19390;51.460;5.710;2024-03-08T03:19:48;1.60;99.90
33023;DHT22;19390;51.460;5.710;2024-03-08T03:22:13;1.60;99.90
33023;DHT22;19390;51.460;5.710;2024-03-08T03:24:41;1.60;99.90
33023;DHT22;19390;51.460;5.710;2024-03-08T03:27:07;1.60;99.90
33023;DHT22;19390;51.460;5.710;2024-03-08T03:29:40;1.50;99.90
33023;DHT22;19390;51.460;5.710;2024-03-08T03:32:08;1.50;99.90
33023;DHT22;19390;51.460;5.710;2024-03-08T03:34:34;1.60;99.90
33023;DHT22;19390;51.460;5.710;2024-03-08T03:37:03;1.50;99.90
33023;DHT22;19390;51.460;5.710;2024-03-08T03:39:30;1.60;99.90
33023;DHT22;19390;51.460;5.710;2024-03-08T03:41:59;1.60;99.90
33023;DHT22;19390;51.460;5.710;2024-03-08T03:44:27;1.60;99.90
33023;DHT22;19390;51.460;5.710;2024-03-08T03:46:53;1.60;99.90
33023;DHT22;19390;51.460;5.710;2024-03-08T03:49:19;1.50;99.90
33023;DHT22;19390;51.460;5.710;2024-03-08T03:51:45;1.50;99.90
33023;DHT22;19390;51.460;5.710;2024-03-08T03:54:11;1.50;99.90
33023;DHT22;19390;51.460;5.710;2024-03-08T03:56:36;1.50;99.90
33023;DHT22;19390;51.460;5.710;2024-03-08T03:59:02;1.50;99.90
33023;DHT22;19390;51.460;5.710;2024-03-08T04:01:28;1.40;99.90
33023;DHT22;19390;51.460;5.710;2024-03-08T04:03:55;1.40;99.90
33023;DHT22;19390;51.460;5.710;2024-03-08T04:06:20;1.40;99.90
33023;DHT22;19390;51.460;5.710;2024-03-08T04:08:47;1.50;99.90
33023;DHT22;19390;51.460;5.710;2024-03-08T04:11:13;1.40;99.90
33023;DHT22;19390;51.460;5.710;2024-03-08T04:13:41;1.40;99.90
33023;DHT22;19390;51.460;5.710;2024-03-08T04:16:07;1.40;99.90
33023;DHT22;19390;51.460;5.710;2024-03-08T04:18:34;1.50;99.90
33023;DHT22;19390;51.460;5.710;2024-03-08T04:21:02;1.40;99.90
33023;DHT22;19390;51.460;5.710;2024-03-08T04:23:28;1.30;99.90
33023;DHT22;19390;51.460;5.710;2024-03-08T04:25:54;1.30;99.90
33023;DHT22;19390;51.460;5.710;2024-03-08T04:28:19;1.30;99.90
33023;DHT22;19390;51.460;5.710;2024-03-08T04:30:45;1.30;99.90
33023;DHT22;19390;51.460;5.710;2024-03-08T04:33:11;1.20;99.90
33023;DHT22;19390;51.460;5.710;2024-03-08T04:35:37;1.20;99.90
33023;DHT22;19390;51.460;5.710;2024-03-08T04:38:03;1.20;99.90
33023;DHT22;19390;51.460;5.710;2024-03-08T04:40:31;1.20;99.90
33023;DHT22;19390;51.460;5.710;2024-03-08T04:42:58;1.20;99.90
33023;DHT22;19390;51.460;5.710;2024-03-08T04:45:24;1.20;99.90
33023;DHT22;19390;51.460;5.710;2024-03-08T04:47:51;1.20;99.90
33023;DHT22;19390;51.460;5.710;2024-03-08T04:50:18;1.20;99.90
33023;DHT22;19390;51.460;5.710;2024-03-08T04:52:43;1.10;99.90
33023;DHT22;19390;51.460;5.710;2024-03-08T04:55:09;1.10;99.90
33023;DHT22;19390;51.460;5.710;2024-03-08T04:57:35;1.10;99.90
33023;DHT22;19390;51.460;5.710;2024-03-08T05:00:03;1.10;99.90
33023;DHT22;19390;51.460;5.710;2024-03-08T05:02:33;1.10;99.90
33023;DHT22;19390;51.460;5.710;2024-03-08T05:04:58;1.10;99.90
33023;DHT22;19390;51.460;5.710;2024-03-08T05:07:24;1.00;99.90
33023;DHT22;19390;51.460;5.710;2024-03-08T05:09:49;1.00;99.90
33023;DHT22;19390;51.460;5.710;2024-03-08T05:12:18;1.00;99.90
33023;DHT22;19390;51.460;5.710;2024-03-08T05:14:47;1.00;99.90
33023;DHT22;19390;51.460;5.710;2024-03-08T05:17:15;1.00;99.90
33023;DHT22;19390;51.460;5.710;2024-03-08T05:19:42;0.90;99.90
33023;DHT22;19390;51.460;5.710;2024-03-08T05:22:07;0.90;99.90
33023;DHT22;19390;51.460;5.710;2024-03-08T05:24:33;0.80;99.90
33023;DHT22;19390;51.460;5.710;2024-03-08T05:26:59;0.80;99.90
33023;DHT22;19390;51.460;5.710;2024-03-08T05:29:26;0.80;99.90
33023;DHT22;19390;51.460;5.710;2024-03-08T05:31:52;0.90;99.90
33023;DHT22;19390;51.460;5.710;2024-03-08T05:34:18;0.90;99.90
33023;DHT22;19390;51.460;5.710;2024-03-08T05:36:45;0.90;99.90
33023;DHT22;19390;51.460;5.710;2024-03-08T05:39:13;0.90;99.90
33023;DHT22;19390;51.460;5.710;2024-03-08T05:41:39;0.90;99.90
33023;DHT22;19390;51.460;5.710;2024-03-08T05:44:06;0.80;99.90
33023;DHT22;19390;51.460;5.710;2024-03-08T05:46:31;0.80;99.90
33023;DHT22;19390;51.460;5.710;2024-03-08T05:48:57;0.80;99.90
33023;DHT22;19390;51.460;5.710;2024-03-08T05:51:25;0.70;99.90
33023;DHT22;19390;51.460;5.710;2024-03-08T05:53:53;0.70;99.90
33023;DHT22;19390;51.460;5.710;2024-03-08T05:56:19;0.70;99.90
33023;DHT22;19390;51.460;5.710;2024-03-08T05:58:45;0.70;99.90
33023;DHT22;19390;51.460;5.710;2024-03-08T06:01:11;0.70;99.90
33023;DHT22;19390;51.460;5.710;2024-03-08T06:03:38;0.70;99.90
33023;DHT22;19390;51.460;5.710;2024-03-08T06:06:13;0.70;99.90
33023;DHT22;19390;51.460;5.710;2024-03-08T06:08:39;0.70;99.90
33023;DHT22;19390;51.460;5.710;2024-03-08T06:11:05;0.80;99.90
33023;DHT22;19390;51.460;5.710;2024-03-08T06:13:32;0.80;99.90
33023;DHT22;19390;51.460;5.710;2024-03-08T06:15:59;0.90;99.90
33023;DHT22;19390;51.460;5.710;2024-03-08T06:18:26;0.80;99.90
33023;DHT22;19390;51.460;5.710;2024-03-08T06:20:51;0.80;99.90
33023;DHT22;19390;51.460;5.710;2024-03-08T06:23:18;0.80;99.90
33023;DHT22;19390;51.460;5.710;2024-03-08T06:25:44;0.90;99.90
33023;DHT22;19390;51.460;5.710;2024-03-08T06:28:10;1.00;99.90
33023;DHT22;19390;51.460;5.710;2024-03-08T06:30:36;1.20;99.90
33023;DHT22;19390;51.460;5.710;2024-03-08T06:33:01;1.20;99.90
33023;DHT22;19390;51.460;5.710;2024-03-08T06:35:27;1.40;99.90
33023;DHT22;19390;51.460;5.710;2024-03-08T06:37:53;1.40;99.90
33023;DHT22;19390;51.460;5.710;2024-03-08T06:40:19;1.50;99.90
33023;DHT22;19390;51.460;5.710;2024-03-08T06:42:44;1.60;99.90
33023;DHT22;19390;51.460;5.710;2024-03-08T06:45:10;1.80;99.90
33023;DHT22;19390;51.460;5.710;2024-03-08T06:47:37;2.00;99.90
33023;DHT22;19390;51.460;5.710;2024-03-08T06:50:03;2.10;99.90
33023;DHT22;19390;51.460;5.710;2024-03-08T06:52:29;2.10;99.90
33023;DHT22;19390;51.460;5.710;2024-03-08T06:54:55;2.10;99.90
33023;DHT22;19390;51.460;5.710;2024-03-08T06:57:22;2.10;99.90
33023;DHT22;19390;51.460;5.710;2024-03-08T06:59:49;2.20;99.90
33023;DHT22;19390;51.460;5.710;2024-03-08T07:02:14;2.30;99.90
33023;DHT22;19390;51.460;5.710;2024-03-08T07:04:40;2.50;99.90
33023;DHT22;19390;51.460;5.710;2024-03-08T07:07:06;2.70;99.90
33023;DHT22;19390;51.460;5.710;2024-03-08T07:09:35;3.30;99.90
33023;DHT22;19390;51.460;5.710;2024-03-08T07:12:01;3.70;99.90
33023;DHT22;19390;51.460;5.710;2024-03-08T07:14:27;4.10;99.90
33023;DHT22;19390;51.460;5.710;2024-03-08T07:16:53;4.50;99.90
33023;DHT22;19390;51.460;5.710;2024-03-08T07:19:19;4.60;99.90
33023;DHT22;19390;51.460;5.710;2024-03-08T07:21:45;4.90;99.90
33023;DHT22;19390;51.460;5.710;2024-03-08T07:24:11;5.20;1.00
33023;DHT22;19390;51.460;5.710;2024-03-08T07:26:45;5.20;1.00
33023;DHT22;19390;51.460;5.710;2024-03-08T07:29:15;5.40;1.00
33023;DHT22;19390;51.460;5.710;2024-03-08T07:31:41;5.70;1.00
33023;DHT22;19390;51.460;5.710;2024-03-08T07:34:06;5.60;1.00
33023;DHT22;19390;51.460;5.710;2024-03-08T07:36:33;6.00;1.00
33023;DHT22;19390;51.460;5.710;2024-03-08T07:38:59;5.90;1.00
33023;DHT22;19390;51.460;5.710;2024-03-08T07:41:25;5.90;1.00
33023;DHT22;19390;51.460;5.710;2024-03-08T07:43:51;6.30;1.00
33023;DHT22;19390;51.460;5.710;2024-03-08T07:46:17;6.50;99.90
33023;DHT22;19390;51.460;5.710;2024-03-08T07:48:44;6.70;99.90
33023;DHT22;19390;51.460;5.710;2024-03-08T07:51:10;6.90;99.90
33023;DHT22;19390;51.460;5.710;2024-03-08T07:53:37;7.20;99.90
33023;DHT22;19390;51.460;5.710;2024-03-08T07:56:04;7.40;1.00
33023;DHT22;19390;51.460;5.710;2024-03-08T07:58:30;7.70;99.90
33023;DHT22;19390;51.460;5.710;2024-03-08T08:00:56;7.60;1.00
33023;DHT22;19390;51.460;5.710;2024-03-08T08:03:21;7.80;1.00
33023;DHT22;19390;51.460;5.710;2024-03-08T08:05:48;7.90;99.90
33023;DHT22;19390;51.460;5.710;2024-03-08T08:08:14;8.00;99.90
33023;DHT22;19390;51.460;5.710;2024-03-08T08:10:40;8.50;99.90
33023;DHT22;19390;51.460;5.710;2024-03-08T08:13:06;8.90;99.90
33023;DHT22;19390;51.460;5.710;2024-03-08T08:15:31;9.20;99.90
33023;DHT22;19390;51.460;5.710;2024-03-08T08:18:00;9.60;99.90
33023;DHT22;19390;51.460;5.710;2024-03-08T08:20:25;9.70;99.90
33023;DHT22;19390;51.460;5.710;2024-03-08T08:22:53;9.80;99.90
33023;DHT22;19390;51.460;5.710;2024-03-08T08:25:20;9.40;99.90
33023;DHT22;19390;51.460;5.710;2024-03-08T08:27:46;9.40;99.90
33023;DHT22;19390;51.460;5.710;2024-03-08T08:30:12;9.70;99.90
33023;DHT22;19390;51.460;5.710;2024-03-08T08:32:39;9.90;99.90
33023;DHT22;19390;51.460;5.710;2024-03-08T08:35:08;9.90;99.90
33023;DHT22;19390;51.460;5.710;2024-03-08T08:37:39;9.90;99.90
33023;DHT22;19390;51.460;5.710;2024-03-08T08:40:05;10.60;99.90
33023;DHT22;19390;51.460;5.710;2024-03-08T08:42:35;11.20;99.90
33023;DHT22;19390;51.460;5.710;2024-03-08T08:45:01;11.40;99.90
33023;DHT22;19390;51.460;5.710;2024-03-08T08:47:27;11.40;99.90
33023;DHT22;19390;51.460;5.710;2024-03-08T08:49:53;11.20;99.90
33023;DHT22;19390;51.460;5.710;2024-03-08T08:52:19;11.40;99.90
33023;DHT22;19390;51.460;5.710;2024-03-08T08:54:45;12.20;99.90
33023;DHT22;19390;51.460;5.710;2024-03-08T08:57:10;12.10;99.90
33023;DHT22;19390;51.460;5.710;2024-03-08T08:59:36;12.00;99.90
33023;DHT22;19390;51.460;5.710;2024-03-08T09:02:05;11.40;99.90
33023;DHT22;19390;51.460;5.710;2024-03-08T09:04:31;11.50;99.90
33023;DHT22;19390;51.460;5.710;2024-03-08T09:06:57;12.10;99.90
33023;DHT22;19390;51.460;5.710;2024-03-08T09:09:23;11.60;99.90
33023;DHT22;19390;51.460;5.710;2024-03-08T09:11:49;11.50;99.90
33023;DHT22;19390;51.460;5.710;2024-03-08T09:14:15;11.10;99.90
33023;DHT22;19390;51.460;5.710;2024-03-08T09:16:41;11.40;99.90
33023;DHT22;19390;51.460;5.710;2024-03-08T09:19:06;12.70;99.90
33023;DHT22;19390;51.460;5.710;2024-03-08T09:21:33;13.00;99.90
33023;DHT22;19390;51.460;5.710;2024-03-08T09:24:00;12.50;99.90
33023;DHT22;19390;51.460;5.710;2024-03-08T09:26:26;13.40;99.90
33023;DHT22;19390;51.460;5.710;2024-03-08T09:28:52;13.50;99.90
33023;DHT22;19390;51.460;5.710;2024-03-08T09:31:18;12.80;99.90
33023;DHT22;19390;51.460;5.710;2024-03-08T09:33:43;12.00;99.90
33023;DHT22;19390;51.460;5.710;2024-03-08T09:36:09;12.20;99.90
33023;DHT22;19390;51.460;5.710;2024-03-08T09:38:34;12.40;99.90
33023;DHT22;19390;51.460;5.710;2024-03-08T09:41:00;12.70;99.90
33023;DHT22;19390;51.460;5.710;2024-03-08T09:43:28;12.40;99.90
33023;DHT22;19390;51.460;5.710;2024-03-08T09:45:55;13.40;99.90
33023;DHT22;19390;51.460;5.710;2024-03-08T09:48:22;13.80;99.90
33023;DHT22;19390;51.460;5.710;2024-03-08T09:50:48;14.10;99.90
33023;DHT22;19390;51.460;5.710;2024-03-08T09:53:14;13.90;99.90
33023;DHT22;19390;51.460;5.710;2024-03-08T09:55:40;13.40;99.90
33023;DHT22;19390;51.460;5.710;2024-03-08T09:58:12;13.90;99.90
33023;DHT22;19390;51.460;5.710;2024-03-08T10:00:53;14.10;99.90
33023;DHT22;19390;51.460;5.710;2024-03-08T10:03:19;14.70;99.90
33023;DHT22;19390;51.460;5.710;2024-03-08T10:05:45;13.80;99.90
33023;DHT22;19390;51.460;5.710;2024-03-08T10:08:12;13.90;99.90
33023;DHT22;19390;51.460;5.710;2024-03-08T10:10:39;14.00;99.90
33023;DHT22;19390;51.460;5.710;2024-03-08T10:13:08;14.90;99.90
33023;DHT22;19390;51.460;5.710;2024-03-08T10:15:34;14.70;99.90
33023;DHT22;19390;51.460;5.710;2024-03-08T10:18:00;14.80;99.90
33023;DHT22;19390;51.460;5.710;2024-03-08T10:20:30;13.70;99.90
33023;DHT22;19390;51.460;5.710;2024-03-08T10:23:02;13.60;99.90
33023;DHT22;19390;51.460;5.710;2024-03-08T10:25:33;14.70;99.90
33023;DHT22;19390;51.460;5.710;2024-03-08T10:27:59;14.90;99.90
33023;DHT22;19390;51.460;5.710;2024-03-08T10:30:25;14.50;99.90
33023;DHT22;19390;51.460;5.710;2024-03-08T10:32:50;14.60;99.90
33023;DHT22;19390;51.460;5.710;2024-03-08T10:35:17;14.90;99.90
33023;DHT22;19390;51.460;5.710;2024-03-08T10:37:50;15.20;99.90
33023;DHT22;19390;51.460;5.710;2024-03-08T10:40:28;14.70;99.90
33023;DHT22;19390;51.460;5.710;2024-03-08T10:42:58;15.30;99.90
33023;DHT22;19390;51.460;5.710;2024-03-08T10:50:41;14.60;99.90
33023;DHT22;19390;51.460;5.710;2024-03-08T10:53:11;15.80;99.90
33023;DHT22;19390;51.460;5.710;2024-03-08T10:55:40;15.90;99.90
33023;DHT22;19390;51.460;5.710;2024-03-08T10:58:08;16.00;99.90
33023;DHT22;19390;51.460;5.710;2024-03-08T11:00:35;15.00;99.90
33023;DHT22;19390;51.460;5.710;2024-03-08T11:03:01;14.90;99.90
33023;DHT22;19390;51.460;5.710;2024-03-08T11:08:02;15.10;99.90
33023;DHT22;19390;51.460;5.710;2024-03-08T11:10:29;15.60;99.90
33023;DHT22;19390;51.460;5.710;2024-03-08T11:12:55;16.20;99.90
33023;DHT22;19390;51.460;5.710;2024-03-08T11:15:20;16.80;99.90
33023;DHT22;19390;51.460;5.710;2024-03-08T11:17:49;16.60;99.90
33023;DHT22;19390;51.460;5.710;2024-03-08T11:20:17;15.50;99.90
33023;DHT22;19390;51.460;5.710;2024-03-08T11:22:50;15.80;99.90
33023;DHT22;19390;51.460;5.710;2024-03-08T11:25:40;15.50;99.90
33023;DHT22;19390;51.460;5.710;2024-03-08T11:28:20;15.50;99.90
33023;DHT22;19390;51.460;5.710;2024-03-08T11:33:28;14.80;99.90
33023;DHT22;19390;51.460;5.710;2024-03-08T11:36:14;15.20;99.90
33023;DHT22;19390;51.460;5.710;2024-03-08T11:38:48;15.10;99.90
33023;DHT22;19390;51.460;5.710;2024-03-08T11:41:17;14.60;99.90
33023;DHT22;19390;51.460;5.710;2024-03-08T11:43:45;14.80;99.90
33023;DHT22;19390;51.460;5.710;2024-03-08T11:46:12;15.00;99.90
33023;DHT22;19390;51.460;5.710;2024-03-08T11:48:40;16.10;99.90
33023;DHT22;19390;51.460;5.710;2024-03-08T11:51:11;16.00;99.90
33023;DHT22;19390;51.460;5.710;2024-03-08T11:53:38;16.50;99.90
33023;DHT22;19390;51.460;5.710;2024-03-08T11:56:13;16.50;99.90
33023;DHT22;19390;51.460;5.710;2024-03-08T11:58:40;15.90;99.90
33023;DHT22;19390;51.460;5.710;2024-03-08T12:01:10;15.80;99.90
33023;DHT22;19390;51.460;5.710;2024-03-08T12:03:39;16.10;99.90
33023;DHT22;19390;51.460;5.710;2024-03-08T12:06:08;15.80;99.90
33023;DHT22;19390;51.460;5.710;2024-03-08T12:08:35;16.10;99.90
33023;DHT22;19390;51.460;5.710;2024-03-08T12:11:01;16.10;99.90
33023;DHT22;19390;51.460;5.710;2024-03-08T12:13:28;16.30;99.90
33023;DHT22;19390;51.460;5.710;2024-03-08T12:15:59;15.50;99.90
33023;DHT22;19390;51.460;5.710;2024-03-08T12:18:28;16.30;99.90
33023;DHT22;19390;51.460;5.710;2024-03-08T12:21:10;16.80;99.90
33023;DHT22;19390;51.460;5.710;2024-03-08T12:23:38;17.10;99.90
33023;DHT22;19390;51.460;5.710;2024-03-08T12:26:15;17.80;1.00
33023;DHT22;19390;51.460;5.710;2024-03-08T12:28:41;17.20;1.00
33023;DHT22;19390;51.460;5.710;2024-03-08T12:31:11;17.10;99.90
33023;DHT22;19390;51.460;5.710;2024-03-08T12:33:50;17.10;99.90
33023;DHT22;19390;51.460;5.710;2024-03-08T12:36:17;17.90;99.90
33023;DHT22;19390;51.460;5.710;2024-03-08T12:38:46;16.80;99.90
33023;DHT22;19390;51.460;5.710;2024-03-08T12:41:16;17.40;99.90
33023;DHT22;19390;51.460;5.710;2024-03-08T12:43:43;17.50;99.90
33023;DHT22;19390;51.460;5.710;2024-03-08T12:46:20;17.00;99.90
33023;DHT22;19390;51.460;5.710;2024-03-08T12:48:46;17.10;99.90
33023;DHT22;19390;51.460;5.710;2024-03-08T12:51:16;16.70;99.90
33023;DHT22;19390;51.460;5.710;2024-03-08T12:53:43;15.70;99.90
33023;DHT22;19390;51.460;5.710;2024-03-08T12:56:13;15.90;99.90
33023;DHT22;19390;51.460;5.710;2024-03-08T12:58:39;15.90;99.90
33023;DHT22;19390;51.460;5.710;2024-03-08T13:01:06;15.90;99.90
33023;DHT22;19390;51.460;5.710;2024-03-08T13:03:35;15.90;99.90
33023;DHT22;19390;51.460;5.710;2024-03-08T13:06:05;15.80;99.90
33023;DHT22;19390;51.460;5.710;2024-03-08T13:08:37;15.80;99.90
33023;DHT22;19390;51.460;5.710;2024-03-08T13:11:06;16.20;99.90
33023;DHT22;19390;51.460;5.710;2024-03-08T13:13:37;16.90;1.00
33023;DHT22;19390;51.460;5.710;2024-03-08T13:16:06;16.90;1.00
33023;DHT22;19390;51.460;5.710;2024-03-08T13:18:35;16.70;99.90
33023;DHT22;19390;51.460;5.710;2024-03-08T13:21:02;17.00;99.90
33023;DHT22;19390;51.460;5.710;2024-03-08T13:23:32;16.30;99.90
33023;DHT22;19390;51.460;5.710;2024-03-08T13:25:57;16.10;1.00
33023;DHT22;19390;51.460;5.710;2024-03-08T13:28:23;15.80;99.90
33023;DHT22;19390;51.460;5.710;2024-03-08T13:30:53;15.80;99.90
33023;DHT22;19390;51.460;5.710;2024-03-08T13:33:19;16.10;99.90
33023;DHT22;19390;51.460;5.710;2024-03-08T13:35:46;17.30;99.90
33023;DHT22;19390;51.460;5.710;2024-03-08T13:38:12;17.00;99.90
33023;DHT22;19390;51.460;5.710;2024-03-08T13:40:39;16.20;99.90
33023;DHT22;19390;51.460;5.710;2024-03-08T13:43:06;15.60;99.90
33023;DHT22;19390;51.460;5.710;2024-03-08T13:45:34;15.90;99.90
33023;DHT22;19390;51.460;5.710;2024-03-08T13:48:03;15.70;99.90
33023;DHT22;19390;51.460;5.710;2024-03-08T13:50:30;15.80;99.90
33023;DHT22;19390;51.460;5.710;2024-03-08T13:52:56;15.60;99.90
33023;DHT22;19390;51.460;5.710;2024-03-08T13:55:21;15.60;99.90
33023;DHT22;19390;51.460;5.710;2024-03-08T13:57:48;15.70;99.90
33023;DHT22;19390;51.460;5.710;2024-03-08T14:00:14;16.30;99.90
33023;DHT22;19390;51.460;5.710;2024-03-08T14:02:40;15.80;99.90
33023;DHT22;19390;51.460;5.710;2024-03-08T14:05:07;16.50;99.90
33023;DHT22;19390;51.460;5.710;2024-03-08T14:07:37;17.10;99.90
33023;DHT22;19390;51.460;5.710;2024-03-08T14:10:03;17.10;99.90
33023;DHT22;19390;51.460;5.710;2024-03-08T14:12:29;17.30;99.90
33023;DHT22;19390;51.460;5.710;2024-03-08T14:14:55;16.40;99.90
33023;DHT22;19390;51.460;5.710;2024-03-08T14:17:25;16.20;99.90
33023;DHT22;19390;51.460;5.710;2024-03-08T14:19:52;16.00;99.90
33023;DHT22;19390;51.460;5.710;2024-03-08T14:22:18;15.70;99.90
33023;DHT22;19390;51.460;5.710;2024-03-08T14:24:44;15.50;99.90
33023;DHT22;19390;51.460;5.710;2024-03-08T14:27:10;15.70;99.90
33023;DHT22;19390;51.460;5.710;2024-03-08T14:29:37;15.80;99.90
33023;DHT22;19390;51.460;5.710;2024-03-08T14:32:07;16.10;99.90
33023;DHT22;19390;51.460;5.710;2024-03-08T14:34:33;15.70;99.90
33023;DHT22;19390;51.460;5.710;2024-03-08T14:37:00;15.00;99.90
33023;DHT22;19390;51.460;5.710;2024-03-08T14:39:26;15.00;99.90
33023;DHT22;19390;51.460;5.710;2024-03-08T14:41:55;15.00;99.90
33023;DHT22;19390;51.460;5.710;2024-03-08T14:44:22;14.90;99.90
33023;DHT22;19390;51.460;5.710;2024-03-08T14:46:57;14.90;99.90
33023;DHT22;19390;51.460;5.710;2024-03-08T14:49:24;15.50;99.90
33023;DHT22;19390;51.460;5.710;2024-03-08T14:51:51;15.40;99.90
33023;DHT22;19390;51.460;5.710;2024-03-08T14:54:17;14.70;99.90
33023;DHT22;19390;51.460;5.710;2024-03-08T14:56:48;14.50;99.90
33023;DHT22;19390;51.460;5.710;2024-03-08T14:59:16;14.40;99.90
33023;DHT22;19390;51.460;5.710;2024-03-08T15:01:42;14.60;99.90
33023;DHT22;19390;51.460;5.710;2024-03-08T15:04:09;14.30;99.90
33023;DHT22;19390;51.460;5.710;2024-03-08T15:06:38;14.20;99.90
33023;DHT22;19390;51.460;5.710;2024-03-08T15:09:04;14.40;99.90
33023;DHT22;19390;51.460;5.710;2024-03-08T15:11:46;14.20;99.90
33023;DHT22;19390;51.460;5.710;2024-03-08T15:14:12;14.20;99.90
33023;DHT22;19390;51.460;5.710;2024-03-08T15:16:38;13.90;99.90
33023;DHT22;19390;51.460;5.710;2024-03-08T15:19:06;13.60;99.90
33023;DHT22;19390;51.460;5.710;2024-03-08T15:21:32;13.40;99.90
33023;DHT22;19390;51.460;5.710;2024-03-08T15:23:57;13.50;99.90
33023;DHT22;19390;51.460;5.710;2024-03-08T15:26:23;13.40;99.90
33023;DHT22;19390;51.460;5.710;2024-03-08T15:28:51;13.50;99.90
33023;DHT22;19390;51.460;5.710;2024-03-08T15:31:19;13.50;99.90
33023;DHT22;19390;51.460;5.710;2024-03-08T15:33:46;13.10;99.90
33023;DHT22;19390;51.460;5.710;2024-03-08T15:36:17;12.70;99.90
33023;DHT22;19390;51.460;5.710;2024-03-08T15:38:46;12.60;99.90
33023;DHT22;19390;51.460;5.710;2024-03-08T15:41:13;12.80;99.90
33023;DHT22;19390;51.460;5.710;2024-03-08T15:43:40;12.80;99.90
33023;DHT22;19390;51.460;5.710;2024-03-08T15:46:07;12.80;99.90
33023;DHT22;19390;51.460;5.710;2024-03-08T15:48:33;12.70;99.90
33023;DHT22;19390;51.460;5.710;2024-03-08T15:51:01;12.90;99.90